This is the latest recevied weather packets stored in our database for station/object IT9CYW-12. If no packets are shown the sender has not sent any weather packets the latest 10 day(s).
| Time | Temp. | Humidity | Pressure | Rain* | Wind** | Luminosity | Snow |
|---|---|---|---|---|---|---|---|
| 1777284716 | 18.89° C | 44% | 982.2 hPa | - | - | 736 W/m² | - |
| 1777283816 | 19.44° C | 45% | 982 hPa | - | - | 724 W/m² | - |
| 1777282916 | 19.44° C | 44% | 982.2 hPa | - | - | 690 W/m² | - |
| 1777282016 | 19.44° C | 42% | 982 hPa | - | - | 685 W/m² | - |
| 1777281116 | 20° C | 39% | 982.2 hPa | - | - | 693 W/m² | - |
| 1777280215 | 20° C | 34% | 982.5 hPa | - | - | 577 W/m² | - |
| 1777279315 | 19.44° C | 35% | 982.5 hPa | - | - | 205 W/m² | - |
| 1777278415 | 20° C | 33% | 982.5 hPa | - | - | 120 W/m² | - |
| 1777277515 | 20° C | 32% | 982.5 hPa | - | - | 115 W/m² | - |
| 1777276615 | 20° C | 29% | 982.5 hPa | - | - | 99 W/m² | - |
| 1777275714 | 19.44° C | 30% | 982.2 hPa | - | - | 310 W/m² | - |
| 1777274814 | 19.44° C | 30% | 982.4 hPa | - | - | 444 W/m² | - |
| 1777273914 | 18.89° C | 30% | 982.2 hPa | - | - | 491 W/m² | - |
| 1777273014 | 18.89° C | 31% | 982.2 hPa | - | - | 450 W/m² | - |
| 1777272114 | 17.78° C | 38% | 982.2 hPa | - | - | 403 W/m² | - |
| 1777271213 | 17.22° C | 37% | 982 hPa | - | - | 361 W/m² | - |
| 1777269416 | 17.78° C | 35% | 982.2 hPa | - | - | 269 W/m² | - |
| 1777268516 | 17.78° C | 36% | 982.2 hPa | - | - | 217 W/m² | - |
| 1777267616 | 17.78° C | 35% | 982 hPa | - | - | 166 W/m² | - |
| 1777266716 | 16.67° C | 38% | 982.2 hPa | - | - | 114 W/m² | - |
| 1777265816 | 15.56° C | 42% | 982 hPa | - | - | 71 W/m² | - |
| 1777255915 | 14.44° C | 38% | 981.5 hPa | - | - | 0 W/m² | - |
| 1777253214 | 15° C | 34% | 981.5 hPa | - | - | 0 W/m² | - |
| 1777252314 | 15.56° C | 35% | 981.5 hPa | - | - | 0 W/m² | - |
| 1777251414 | 15.56° C | 35% | 981.7 hPa | - | - | 0 W/m² | - |
* Rain since midnight (hover to see other rain measurements)
** Current wind speed in m/s (hover to see current wind gust speed)